KAUO/AUO METAR and TAF weather

Enter ICAO airport designator
Station Type Date Time Source
KAUO METAR 2018/09/21 22:56 UTC NOAA

KAUO 212256Z AUTO 10004KT 10SM CLR 30/18 A3007 RMK AO2 SLP191 T03000178


Station Type Date Time Source
KAUO Decoded METAR 2018/09/21 22:56 UTC NOAA

Auburn-Opelika Airport, AL, United States (KAUO) 32-37N 085-26W
Sep 21, 2018 - 06:56 PM EDT / 2018.09.21 2256 UTC
Wind: from the E (100 degrees) at 5 MPH (4 KT):0
Visibility: 10 mile(s):0
Sky conditions: clear
Temperature: 86.0 F (30.0 C)
Dew Point: 64.0 F (17.8 C)
Relative Humidity: 48%
Pressure (altimeter): 30.07 in. Hg (1018 hPa)
ob: KAUO 212256Z AUTO 10004KT 10SM CLR 30/18 A3007 RMK AO2 SLP191 T03000178
cycle: 23

Station Type Date Time Source
KAUO TAF UTC NOAA

Error!


Example: see airport list